createdAt,value
2016-06-10T00:01:13.586Z,12.9
2016-06-10T00:04:27.845Z,12.8
2016-06-10T00:07:42.011Z,12.8
2016-06-10T00:10:56.130Z,12.7
2016-06-10T00:14:15.204Z,12.7
2016-06-10T00:17:20.027Z,12.6
2016-06-10T00:20:34.222Z,12.6
2016-06-10T00:23:48.372Z,12.6
2016-06-10T00:27:02.491Z,12.5
2016-06-10T00:30:16.722Z,12.4
2016-06-10T00:33:31.075Z,12.4
2016-06-10T00:36:45.366Z,12.4
2016-06-10T00:39:59.812Z,12.3
2016-06-10T00:43:13.575Z,12.3
2016-06-10T00:46:27.756Z,12.2
2016-06-10T00:49:41.592Z,12.2
2016-06-10T00:52:55.446Z,12.1
2016-06-10T00:56:14.552Z,12
2016-06-10T00:59:23.421Z,12
2016-06-10T01:02:33.258Z,12
2016-06-10T01:05:47.439Z,11.9
2016-06-10T01:08:59.636Z,11.9
2016-06-10T01:12:19.164Z,11.8
2016-06-10T01:15:23.861Z,11.7
2016-06-10T01:18:38.120Z,11.7
2016-06-10T01:21:52.379Z,11.7
2016-06-10T01:25:06.514Z,11.6
2016-06-10T01:28:20.885Z,11.6
2016-06-10T01:31:34.549Z,11.6
2016-06-10T01:34:46.294Z,11.5
2016-06-10T01:37:59.553Z,11.5
2016-06-10T01:41:18.143Z,11.4
2016-06-10T01:44:21.840Z,11.4
2016-06-10T01:47:35.537Z,11.3
2016-06-10T01:50:49.108Z,11.3
2016-06-10T01:54:02.649Z,11.2
2016-06-10T01:57:21.193Z,11.2
2016-06-10T02:00:25.093Z,11.2
2016-06-10T02:03:35.336Z,11.1
2016-06-10T02:06:48.923Z,11.1
2016-06-10T02:10:02.682Z,11.1
2016-06-10T02:13:21.195Z,11.1
2016-06-10T02:16:25.001Z,11.1
2016-06-10T02:19:38.494Z,11.1
2016-06-10T02:22:52.567Z,11
2016-06-10T02:26:06.638Z,10.8
2016-06-10T02:29:20.057Z,10.7
2016-06-10T02:32:33.909Z,10.6
2016-06-10T02:35:47.590Z,10.5
2016-06-10T02:39:00.029Z,10.4
2016-06-10T02:42:18.823Z,10.3
2016-06-10T02:45:27.170Z,10.2
2016-06-10T02:48:37.035Z,10.1
2016-06-10T02:51:50.699Z,10.1
2016-06-10T02:55:04.075Z,10
2016-06-10T02:58:20.499Z,10
2016-06-10T03:01:23.761Z,9.9
2016-06-10T03:04:37.614Z,9.9
2016-06-10T03:07:49.968Z,9.9
2016-06-10T03:11:04.758Z,9.9
2016-06-10T03:14:23.052Z,9.9
2016-06-10T03:17:27.030Z,9.8
2016-06-10T03:20:40.272Z,9.8
2016-06-10T03:23:54.078Z,9.7
2016-06-10T03:27:08.104Z,9.7
2016-06-10T03:30:19.179Z,9.6
2016-06-10T03:33:30.266Z,9.6
2016-06-10T03:36:44.369Z,9.6
2016-06-10T03:39:58.331Z,9.5
2016-06-10T03:43:15.435Z,9.5
2016-06-10T03:46:20.008Z,9.6
2016-06-10T03:49:34.440Z,9.6
2016-06-10T03:52:48.402Z,9.5
2016-06-10T03:56:02.708Z,9.5
2016-06-10T03:59:22.017Z,9.5
2016-06-10T04:02:26.542Z,9.5
2016-06-10T04:05:40.786Z,9.5
2016-06-10T04:08:54.873Z,9.6
2016-06-10T04:12:08.851Z,9.6
2016-06-10T04:15:19.520Z,9.6
2016-06-10T04:18:31.264Z,9.6
2016-06-10T04:21:45.117Z,9.6
2016-06-10T04:24:59.250Z,9.6
2016-06-10T04:28:18.182Z,9.6
2016-06-10T04:31:22.585Z,9.7
2016-06-10T04:34:36.625Z,9.8
2016-06-10T04:37:51.212Z,9.9
2016-06-10T04:41:03.878Z,10.1
2016-06-10T04:44:22.469Z,10.1
2016-06-10T04:47:26.978Z,10.3
2016-06-10T04:50:41.143Z,10.4
2016-06-10T04:53:51.668Z,10.5
2016-06-10T04:57:07.990Z,10.6
2016-06-10T05:00:22.440Z,10.7
2016-06-10T05:06:50.459Z,11.1
2016-06-10T05:10:04.655Z,11.4
2016-06-10T05:13:24.183Z,11.5
2016-06-10T05:16:28.801Z,11.7
2016-06-10T05:19:43.124Z,11.6
2016-06-10T05:22:57.164Z,11.6
2016-06-10T05:26:16.985Z,11.4
2016-06-10T05:29:20.932Z,11.3
2016-06-10T05:32:34.991Z,11.4
2016-06-10T05:35:49.173Z,11.5
2016-06-10T05:39:03.572Z,11.8
2016-06-10T05:42:22.803Z,11.9
2016-06-10T05:45:27.437Z,11.9
2016-06-10T05:48:41.744Z,12
2016-06-10T05:51:56.158Z,11.9
2016-06-10T05:55:15.621Z,11.9
2016-06-10T05:58:20.255Z,12
2016-06-10T06:01:34.564Z,11.9
2016-06-10T06:04:48.902Z,11.9
2016-06-10T06:08:02.989Z,11.9
2016-06-10T06:11:22.358Z,12
2016-06-10T06:14:27.198Z,12.4
2016-06-10T06:17:41.786Z,12.6
2016-06-10T06:20:56.232Z,13
2016-06-10T06:24:15.788Z,13.2
2016-06-10T06:27:20.782Z,13.6
2016-06-10T06:30:35.325Z,13.6
2016-06-10T06:33:49.241Z,13.7
2016-06-10T06:37:01.047Z,13.7
2016-06-10T06:40:20.665Z,14.2
2016-06-10T06:43:25.741Z,14.7
2016-06-10T06:46:38.562Z,15.8
2016-06-10T06:49:55.525Z,16.3
2016-06-10T06:53:06.190Z,16.9
2016-06-10T06:56:23.480Z,17.2
2016-06-10T06:59:38.226Z,17.3
2016-06-10T07:02:50.955Z,17.5
2016-06-10T07:06:07.792Z,17.7
2016-06-10T07:09:20.490Z,18.2
2016-06-10T07:12:37.455Z,19.4
2016-06-10T07:15:52.511Z,20.4
2016-06-10T07:19:07.582Z,21.2
2016-06-10T07:22:22.748Z,21.8
2016-06-10T07:25:37.948Z,22
2016-06-10T07:28:53.348Z,22.2
2016-06-10T07:32:07.622Z,22.6
2016-06-10T07:35:21.881Z,22.8
2016-06-10T07:38:37.191Z,23
2016-06-10T07:41:52.606Z,23.8
2016-06-10T07:45:08.115Z,23.9
2016-06-10T07:48:23.249Z,24.4
2016-06-10T07:51:38.136Z,24.5
2016-06-10T07:54:53.381Z,24.9
2016-06-10T07:58:06.235Z,24.7
2016-06-10T08:01:23.353Z,24.9
2016-06-10T08:04:38.146Z,25
2016-06-10T08:07:53.436Z,25.2
2016-06-10T08:11:08.570Z,25.5
2016-06-10T08:14:23.768Z,26.1
2016-06-10T08:17:38.763Z,26.8
2016-06-10T08:20:53.883Z,26.6
2016-06-10T08:24:09.220Z,26.7
2016-06-10T08:27:24.151Z,27
2016-06-10T08:30:39.038Z,27.2
2016-06-10T08:33:53.312Z,26.8
2016-06-10T08:37:05.588Z,26.6
2016-06-10T08:40:22.988Z,26.9
2016-06-10T08:43:28.075Z,27.4
2016-06-10T08:46:42.603Z,27.4
2016-06-10T08:49:57.269Z,27.2
2016-06-10T08:53:16.793Z,26.8
2016-06-10T08:56:21.725Z,26.4
2016-06-10T08:59:36.471Z,26.8
2016-06-10T09:02:48.840Z,26.9
2016-06-10T09:06:03.584Z,27.2
2016-06-10T09:09:23.123Z,27.3
2016-06-10T09:12:27.695Z,25.6
2016-06-10T09:15:41.473Z,24.3
2016-06-10T09:18:55.154Z,23.7
2016-06-10T09:22:09.117Z,23.7
2016-06-10T09:25:23.377Z,23.6
2016-06-10T09:28:37.872Z,23.3
2016-06-10T09:31:51.819Z,22.9
2016-06-10T09:35:06.172Z,22.3
2016-06-10T09:38:25.400Z,22.7
2016-06-10T09:41:30.551Z,23.2
2016-06-10T09:44:45.594Z,24.5
2016-06-10T09:47:59.228Z,24.8
2016-06-10T09:51:16.987Z,25.1
2016-06-10T09:54:22.091Z,24.7
2016-06-10T09:57:36.587Z,24.6
2016-06-10T10:00:50.815Z,24.4
2016-06-10T10:04:05.590Z,24.4
2016-06-10T10:07:25.177Z,24.4
2016-06-10T10:10:30.108Z,24.3
2016-06-10T10:13:41.714Z,23.8
2016-06-10T10:16:55.879Z,23.3
2016-06-10T10:20:09.389Z,22.8
2016-06-10T10:23:23.226Z,22.3
2016-06-10T10:26:37.004Z,22
2016-06-10T10:29:50.232Z,21.5
2016-06-10T10:33:04.241Z,21.2
2016-06-10T10:36:22.923Z,20.8
2016-06-10T10:39:27.150Z,20.5
2016-06-10T10:42:41.476Z,20.6
2016-06-10T10:45:56.032Z,20.5
2016-06-10T10:49:10.446Z,20.4
2016-06-10T10:52:25.081Z,20.3
2016-06-10T10:55:39.407Z,20.3
2016-06-10T10:58:53.369Z,20.3
2016-06-10T11:02:07.564Z,20.1
2016-06-10T11:05:26.840Z,20
2016-06-10T11:08:31.349Z,19.8
2016-06-10T11:11:45.517Z,19.7
2016-06-10T11:14:59.120Z,19.6
2016-06-10T11:18:18.177Z,19.6
2016-06-10T11:21:22.530Z,19.5
2016-06-10T11:24:36.571Z,19.5
2016-06-10T11:27:50.505Z,19.3
2016-06-10T11:31:03.998Z,19.2
2016-06-10T11:34:22.601Z,19.3
2016-06-10T11:37:26.703Z,19.5
2016-06-10T11:40:40.153Z,19.5
2016-06-10T11:43:53.975Z,19.7
2016-06-10T11:47:07.914Z,19.8
2016-06-10T11:50:26.584Z,19.8
2016-06-10T11:53:30.590Z,19.6
2016-06-10T11:56:44.346Z,19.4
2016-06-10T11:59:58.084Z,19.4
2016-06-10T12:03:11.928Z,19.4
2016-06-10T12:06:25.892Z,19.4
2016-06-10T12:09:37.402Z,19.4
2016-06-10T12:12:53.198Z,19.4
2016-06-10T12:16:03.786Z,19.4
2016-06-10T12:19:22.357Z,19.4
2016-06-10T12:22:26.413Z,19.5
2016-06-10T12:25:40.376Z,19.4
2016-06-10T12:28:54.481Z,19.4
2016-06-10T12:32:07.881Z,19.5
2016-06-10T12:35:26.344Z,19.5
2016-06-10T12:38:30.368Z,19.6
2016-06-10T12:41:40.971Z,19.6
2016-06-10T12:44:54.375Z,19.6
2016-06-10T12:48:08.165Z,19.6
2016-06-10T12:51:26.706Z,19.7
2016-06-10T12:54:30.808Z,19.6
2016-06-10T12:57:44.680Z,19.5
2016-06-10T13:00:58.438Z,19.4
2016-06-10T13:04:11.855Z,19.3
2016-06-10T13:07:25.068Z,19.2
2016-06-10T13:10:38.873Z,19.1
2016-06-10T13:13:52.698Z,19.2
2016-06-10T13:17:06.551Z,19.3
2016-06-10T13:20:25.419Z,19.3
2016-06-10T13:23:29.351Z,19.3
2016-06-10T13:26:42.969Z,19.3
2016-06-10T13:29:56.747Z,19.2
2016-06-10T13:33:10.695Z,19.2
2016-06-10T13:36:24.343Z,19.1
2016-06-10T13:39:38.134Z,19
2016-06-10T13:42:51.896Z,19
2016-06-10T13:46:05.765Z,18.9
2016-06-10T13:49:24.649Z,18.8
2016-06-10T13:52:28.627Z,18.7
2016-06-10T13:55:41.355Z,18.5
2016-06-10T13:58:55.117Z,18.4
2016-06-10T14:02:06.893Z,18.5
2016-06-10T14:05:27.793Z,18.7
2016-06-10T14:08:31.942Z,18.9
2016-06-10T14:11:45.951Z,19
2016-06-10T14:14:56.526Z,19
2016-06-10T14:18:10.160Z,18.9
2016-06-10T14:21:23.935Z,18.9
2016-06-10T14:24:36.132Z,18.9
2016-06-10T14:27:46.078Z,18.9
2016-06-10T14:30:59.716Z,19
2016-06-10T14:34:13.538Z,19
2016-06-10T14:37:27.391Z,19
2016-06-10T14:40:41.150Z,19.1
2016-06-10T14:43:55.709Z,19.3
2016-06-10T14:47:08.952Z,19.3
2016-06-10T14:50:27.477Z,19.2
2016-06-10T14:53:31.424Z,19.1
2016-06-10T14:56:45.059Z,19
2016-06-10T14:59:58.743Z,18.9
2016-06-10T15:03:12.439Z,18.8
2016-06-10T15:06:25.901Z,18.6
2016-06-10T15:09:39.739Z,18.6
2016-06-10T15:12:48.405Z,18.5
2016-06-10T15:16:03.651Z,18.5
2016-06-10T15:19:14.207Z,18.4
2016-06-10T15:22:27.810Z,18.5
2016-06-10T15:25:41.413Z,18.5
2016-06-10T15:28:55.019Z,18.4
2016-06-10T15:32:05.794Z,18.3
2016-06-10T15:35:24.351Z,18.3
2016-06-10T15:38:28.343Z,18.4
2016-06-10T15:41:42.697Z,18.3
2016-06-10T15:44:53.928Z,18.2
2016-06-10T15:48:02.641Z,18.2
2016-06-10T15:51:23.039Z,18.3
2016-06-10T15:54:27.206Z,18.4
2016-06-10T15:57:41.058Z,18.4
2016-06-10T16:00:54.758Z,18.3
2016-06-10T16:04:08.095Z,18.2
2016-06-10T16:07:26.621Z,18.3
2016-06-10T16:10:30.348Z,18.2
2016-06-10T16:13:43.983Z,18.2
2016-06-10T16:16:55.886Z,18.2
2016-06-10T16:20:09.191Z,18.2
2016-06-10T16:23:24.092Z,18.1
2016-06-10T16:26:27.757Z,18.1
2016-06-10T16:29:41.047Z,18.1
2016-06-10T16:32:54.435Z,18.1
2016-06-10T16:36:04.757Z,18
2016-06-10T16:39:23.359Z,17.9
2016-06-10T16:42:27.150Z,17.9
2016-06-10T16:45:40.768Z,18
2016-06-10T16:48:54.375Z,18.1
2016-06-10T16:52:07.977Z,18.1
2016-06-10T16:55:26.658Z,18.2
2016-06-10T16:58:30.480Z,18.2
2016-06-10T17:01:43.646Z,18.1
2016-06-10T17:04:57.002Z,17.9
2016-06-10T17:08:08.558Z,17.8
2016-06-10T17:11:29.146Z,17.7
2016-06-10T17:14:32.827Z,17.7
2016-06-10T17:17:42.758Z,17.7
2016-06-10T17:20:55.880Z,17.9
2016-06-10T17:24:09.405Z,18
2016-06-10T17:27:28.475Z,18
2016-06-10T17:30:31.469Z,18
2016-06-10T17:33:44.558Z,18
2016-06-10T17:36:57.819Z,17.9
2016-06-10T17:40:11.063Z,17.9
2016-06-10T17:43:29.244Z,17.8
2016-06-10T17:46:32.737Z,17.7
2016-06-10T17:49:43.918Z,17.7
2016-06-10T17:52:59.962Z,17.6
2016-06-10T17:56:12.690Z,17.6
2016-06-10T17:59:25.933Z,17.5
2016-06-10T18:02:38.896Z,17.5
2016-06-10T18:05:52.108Z,17.4
2016-06-10T18:09:05.418Z,17.4
2016-06-10T18:12:23.333Z,17.4
2016-06-10T18:15:26.732Z,17.4
2016-06-10T18:18:39.946Z,17.3
2016-06-10T18:21:53.047Z,17.3
2016-06-10T18:25:06.201Z,17.3
2016-06-10T18:28:21.757Z,17.2
2016-06-10T18:31:30.219Z,17.2
2016-06-10T18:34:33.620Z,17.2
2016-06-10T18:37:46.738Z,17.1
2016-06-10T18:40:59.672Z,17
2016-06-10T18:44:12.479Z,16.9
2016-06-10T18:47:28.019Z,16.9
2016-06-10T18:50:31.340Z,16.8
2016-06-10T18:53:44.334Z,16.8
2016-06-10T18:56:57.437Z,16.7
2016-06-10T19:00:10.340Z,16.6
2016-06-10T19:03:28.411Z,16.6
2016-06-10T19:06:31.561Z,16.6
2016-06-10T19:09:44.398Z,16.5
2016-06-10T19:12:55.096Z,16.5
2016-06-10T19:16:08.249Z,16.5
2016-06-10T19:19:26.242Z,16.5
2016-06-10T19:22:29.485Z,16.4
2016-06-10T19:25:42.152Z,16.3
2016-06-10T19:28:54.253Z,16.2
2016-06-10T19:32:06.594Z,16.2
2016-06-10T19:35:24.088Z,16.1
2016-06-10T19:38:26.598Z,16
2016-06-10T19:41:39.090Z,15.9
2016-06-10T19:44:51.350Z,15.9
2016-06-10T19:48:03.612Z,15.8
2016-06-10T19:51:16.152Z,15.8
2016-06-10T19:54:27.819Z,15.7
2016-06-10T19:57:37.031Z,15.7
2016-06-10T20:00:48.883Z,15.6
2016-06-10T20:03:59.049Z,15.6
2016-06-10T20:07:11.343Z,15.5
2016-06-10T20:10:28.726Z,15.4
2016-06-10T20:13:31.189Z,15.4
2016-06-10T20:16:43.667Z,15.3
2016-06-10T20:19:56.286Z,15.3
2016-06-10T20:23:08.063Z,15.2
2016-06-10T20:26:23.651Z,15.2
2016-06-10T20:29:31.394Z,15.1
2016-06-10T20:32:34.014Z,15
2016-06-10T20:35:46.475Z,15
2016-06-10T20:38:58.938Z,14.9
2016-06-10T20:42:11.247Z,14.8
2016-06-10T20:45:28.412Z,14.7
2016-06-10T20:48:31.047Z,14.7
2016-06-10T20:51:43.418Z,14.6
2016-06-10T20:54:55.860Z,14.5
2016-06-10T20:58:08.564Z,14.5
2016-06-10T21:01:24.943Z,14.5
2016-06-10T21:04:32.577Z,14.5
2016-06-10T21:07:34.906Z,14.4
2016-06-10T21:10:47.233Z,14.3
2016-06-10T21:13:59.385Z,14.3
2016-06-10T21:17:11.086Z,14.1
2016-06-10T21:20:28.253Z,14
2016-06-10T21:23:30.496Z,14
2016-06-10T21:26:42.537Z,14
2016-06-10T21:29:51.547Z,14
2016-06-10T21:33:01.477Z,13.9
2016-06-10T21:36:13.536Z,13.9
2016-06-10T21:39:30.625Z,13.8
2016-06-10T21:42:32.617Z,13.7
2016-06-10T21:45:44.721Z,13.7
2016-06-10T21:48:56.527Z,13.6
2016-06-10T21:52:08.085Z,13.6
2016-06-10T21:55:26.564Z,13.5
2016-06-10T21:58:30.994Z,13.4
2016-06-10T22:01:45.145Z,13.3
2016-06-10T22:04:59.169Z,13.3
2016-06-10T22:08:11.963Z,13.2
2016-06-10T22:11:31.129Z,13.1
2016-06-10T22:14:35.278Z,13
2016-06-10T22:17:47.194Z,13
2016-06-10T22:21:01.671Z,13
2016-06-10T22:24:15.200Z,13
2016-06-10T22:27:34.427Z,13
2016-06-10T22:30:39.156Z,13
2016-06-10T22:33:53.352Z,12.9
2016-06-10T22:37:07.553Z,12.9
2016-06-10T22:40:26.921Z,12.8
2016-06-10T22:43:31.149Z,12.7
2016-06-10T22:46:44.345Z,12.7
2016-06-10T22:50:28.638Z,12.7
2016-06-10T22:53:41.336Z,12.6
2016-06-10T22:56:45.376Z,12.5
2016-06-10T22:59:59.229Z,12.5
2016-06-10T23:03:13.179Z,12.4
2016-06-10T23:06:26.063Z,12.4
2016-06-10T23:09:43.807Z,12.4
2016-06-10T23:12:47.878Z,12.4
2016-06-10T23:16:01.465Z,12.3
2016-06-10T23:19:14.868Z,12.3
2016-06-10T23:22:28.206Z,12.3
2016-06-10T23:25:46.559Z,12.4
2016-06-10T23:28:50.241Z,12.4
2016-06-10T23:32:04.108Z,12.4
2016-06-10T23:35:18.120Z,12.4
2016-06-10T23:38:32.286Z,12.4
2016-06-10T23:41:46.670Z,12.4
2016-06-10T23:44:59.773Z,12.4
2016-06-10T23:48:13.755Z,12.3
2016-06-10T23:51:27.639Z,12.3
2016-06-10T23:54:46.601Z,12.3
2016-06-10T23:57:50.924Z,12.3
